• Join FlightAware (Why Join?)
  • Login
  • US Flag 
03:51AM EST


 

Airport Tracker/Info


-or-


 

Live Flight TrackerFlight Track Log ✈ UAL4108 ✈ 09-Aug-2014 ✈ CYOW - KORD

Flight Track Log - Related Links

Times and Time Zones

All times are in EDT time to prevent confusion due to time zone crossing. See the UAL4108 flight status page for this flight to view local times or setup timezone preferences in your user account.

Time Position Orientation Groundspeed Altitude Reporting Facility
EDT Latitude Longitude Course Direction KTS MPH feet Rate Location/Type
11:58AM 45.3000 -75.6667 251° West 130 150 700  Level Montreal Center
11:59AM 45.2667 -75.7333 235° Southwest 180 207 2,400 1,680 Climbing Montreal Center
12:00PM 45.2500 -75.8000 250° West 260 299 4,100 2,100 Climbing Montreal Center
12:01PM 45.1794 -76.2040 215° Southwest  Level FlightAware Approximate
12:01PM 45.2833 -75.9167 292° West 260 299 6,600  Level Montreal Center
12:02PM 45.1401 -76.3320 252° West  Level FlightAware Approximate
12:02PM 45.3000 -76.0167 283° West 270 311 8,700  Level Montreal Center
12:03PM 45.1085 -76.4680 251° West  Level FlightAware Approximate
12:03PM 45.3167 -76.1333 282° West 290 334 10,400  Level Montreal Center
12:04PM 45.3500 -76.2500 292° West 340 391 11,200 1,200 Climbing Montreal Center
12:05PM 45.3500 -76.4000 270° West 340 391 12,900 1,500 Climbing Montreal Center
12:06PM 45.3167 -76.5167 248° West 360 414 14,300 1,320 Climbing Montreal Center
12:07PM 45.2833 -76.6667 253° West 360 414 15,600 1,200 Climbing Montreal Center
12:08PM 45.2500 -76.8000 250° West 370 426 16,800 1,080 Climbing Montreal Center
12:09PM 45.2333 -76.8833 254° West 380 437 17,700 960 Climbing Toronto Center
12:10PM 45.1833 -77.0333 245° Southwest 380 437 18,600 960 Climbing Toronto Center
12:11PM 45.1500 -77.1667 251° West 390 449 19,700 1,140 Climbing Toronto Center
12:12PM 45.1000 -77.3167 245° Southwest 390 449 20,900 1,080 Climbing Toronto Center
12:13PM 45.0667 -77.4667 253° West 400 460 21,900 1,020 Climbing Toronto Center
12:14PM 45.0167 -77.6000 242° Southwest 400 460 23,000 960 Climbing Toronto Center
12:15PM 44.9667 -77.7500 245° Southwest 400 460 23,900 960 Climbing Toronto Center
12:16PM 44.9167 -77.8833 242° Southwest 400 460 25,000 1,020 Climbing Toronto Center
12:17PM 44.8667 -78.0333 245° Southwest 400 460 26,000 900 Climbing Toronto Center
12:18PM 44.8333 -78.1667 251° West 400 460 26,900 900 Climbing Toronto Center
12:19PM 44.7833 -78.3167 245° Southwest 390 449 27,900 1,020 Climbing Toronto Center
12:20PM 44.7333 -78.4667 245° Southwest 390 449 29,000 1,080 Climbing Toronto Center
12:21PM 44.7000 -78.6000 251° West 390 449 30,100 1,080 Climbing Toronto Center
12:22PM 44.6500 -78.7500 245° Southwest 390 449 31,200 1,020 Climbing Toronto Center
12:23PM 44.6000 -78.8667 239° Southwest 390 449 32,200 960 Climbing Toronto Center
12:24PM 44.5667 -79.0000 251° West 400 460 33,200 1,020 Climbing Toronto Center
12:25PM 44.5167 -79.1667 247° West 400 460 34,300 900 Climbing Toronto Center
12:26PM 44.4667 -79.3000 242° Southwest 400 460 35,000 300 Climbing Toronto Center
12:27PM 44.4167 -79.4500 245° Southwest 410 472 35,000  Level Toronto Center
12:28PM 44.3667 -79.5833 242° Southwest 430 495 35,000  Level Toronto Center
12:29PM 44.3167 -79.7500 247° West 440 506 35,000  Level Toronto Center
12:30PM 44.2500 -79.9167 241° Southwest 440 506 35,000  Level Toronto Center
12:31PM 44.2000 -80.0500 242° Southwest 440 506 35,000  Level Toronto Center
12:32PM 44.1500 -80.2167 247° West 440 506 35,000  Level Toronto Center
12:33PM 44.1000 -80.3833 247° West 440 506 35,000 120 Level Toronto Center
12:34PM 44.0500 -80.5167 242° Southwest 440 506 35,300 480 Climbing Toronto Center
12:35PM 44.0000 -80.6833 247° West 440 506 36,000 300 Climbing Toronto Center
12:36PM 43.9167 -80.8333 232° Southwest 440 506 36,000  Level Toronto Center
12:37PM 43.8667 -80.9667 243° Southwest 440 506 36,000  Level Toronto Center
12:38PM 43.8167 -81.1333 247° West 440 506 36,000  Level Toronto Center
12:39PM 43.7667 -81.3000 247° West 440 506 36,000  Level Toronto Center
12:39PM 43.7167 -81.4333 243° Southwest 440 506 36,000  Level Toronto Center
12:40PM 43.6667 -81.6000 248° West 440 506 36,000  Level Toronto Center
12:41PM 43.6167 -81.7333 243° Southwest 440 506 36,000  Level Toronto Center
12:42PM 43.5500 -81.8833 239° Southwest 440 506 36,000  Level Toronto Center
12:43PM 43.4833 -82.0167 235° Southwest 440 506 36,000  Level Toronto Center
12:45PM 43.4333 -82.1833 248° West 430 495 36,000  Level Toronto Center
12:45PM 43.3833 -82.3167 243° Southwest 430 495 36,000  Level Toronto Center
12:46PM 43.3772 -82.3978 264° West 432 497 36,000  Level Cleveland Center
12:47PM 43.3219 -82.5439 243° Southwest 431 496 36,000  Level Cleveland Center
12:48PM 43.2661 -82.6900 242° Southwest 432 497 36,000  Level Cleveland Center
12:49PM 43.2133 -82.8731 248° West 432 497 36,000  Level Cleveland Center
12:50PM 43.1703 -83.0244 249° West 431 496 36,000  Level Cleveland Center
12:51PM 43.1289 -83.1756 249° West 430 495 36,000 -300 Level Cleveland Center
12:52PM 43.0867 -83.3269 249° West 429 494 35,400 -960 Descending Cleveland Center
12:53PM 43.0439 -83.4775 249° West 429 494 34,100 -720 Descending Cleveland Center
12:54PM 42.9933 -83.6561 249° West 428 493 34,000 -360 Descending Cleveland Center
12:55PM 42.9603 -83.8103 254° West 430 495 33,400 -960 Descending Cleveland Center
12:56PM 42.9447 -83.9697 262° West 429 494 32,100 -720 Descending Cleveland Center
12:57PM 42.9300 -84.1306 263° West 428 493 32,000 -360 Descending Cleveland Center
12:58PM 42.9128 -84.2919 262° West 428 493 31,400 -960 Descending Cleveland Center
12:59PM 42.8944 -84.4706 262° West 430 495 30,100 -720 Descending Cleveland Center
01:01PM 42.8789 -84.6347 263° West 434 499 30,000 -60 Descending Cleveland Center
01:02PM 42.8619 -84.8006 262° West 438 504 30,000  Level Cleveland Center
01:03PM 42.8406 -84.9978 262° West 438 504 30,000  Level Cleveland Center
01:04PM 42.8236 -85.1592 262° West 433 498 30,000  Level Cleveland Center
01:05PM 42.8067 -85.3144 262° West 418 481 30,000 -120 Level Cleveland Center
01:06PM 42.7883 -85.4744 261° West 422 486 29,800 -960 Descending Cleveland Center
01:07PM 42.7631 -85.6294 258° West 420 483 28,000 -1,740 Descending Cleveland Center
01:08PM 42.7342 -85.7844 256° West 419 482 26,200 -1,800 Descending Cleveland Center
01:09PM 42.7081 -85.9311 256° West 401 461 24,400 -2,040 Descending Cleveland Center
01:10PM 42.6767 -86.1019 256° West 388 447 22,100 -2,100 Descending Cleveland Center
01:11PM 42.6519 -86.2386 256° West 376 433 20,100 -960 Descending Cleveland Center
01:12PM 42.6169 -86.4228 256° West 360 414 19,800 -840 Descending Chicago Center
01:13PM 42.5919 -86.5539 256° West 360 414 18,100 -1,620 Descending Chicago Center
01:14PM 42.5686 -86.6836 256° West 357 411 16,500 -1,500 Descending Chicago Center
01:15PM 42.5383 -86.8067 252° West 348 400 15,000 -1,500 Descending Chicago Center
01:16PM 42.5064 -86.9267 250° West 341 392 13,500 -1,800 Descending Chicago Center
01:17PM 42.4661 -87.0678 249° West 337 388 11,400 -1,260 Descending Chicago Center
01:19PM 42.4336 -87.1842 249° West 332 382 11,000 -240 Descending Chicago Center
01:20PM 42.4036 -87.2969 250° West 321 369 11,000 -300 Level Chicago Center
01:21PM 42.3711 -87.4133 249° West 305 351 10,400 -1,140 Descending Chicago Center
01:22PM 42.3444 -87.5142 250° West 293 337 8,700 -1,620 Descending Chicago Center
01:23PM 42.2861 -87.5900 224° Southwest 277 319 7,100 -840 Descending Chicago Center
01:24PM 42.2233 -87.6564 218° Southwest 266 306 7,000 -60 Descending Chicago Center
01:25PM 42.1719 -87.7100 218° Southwest 239 275 7,000  Level Chicago Center
01:26PM 42.1167 -87.7681 218° Southwest 235 270 7,000  Level Chicago Center
01:27PM 42.0908 -87.8447 246° West 241 277 7,000  Level Chicago Center
01:28PM 42.0911 -87.9411 270° West 241 277 7,000  Level Chicago Center
01:29PM 42.0903 -88.0314 269° West 241 277 7,000 -660 Level Chicago Center
01:30PM 42.0903 -88.1269 270° West 241 277 5,700 -1,320 Descending Chicago Center
01:31PM 42.0900 -88.2158 270° West 239 275 4,300 -840 Descending Chicago Center
01:32PM 42.0897 -88.3119 270° West 239 275 4,000 -180 Descending Chicago Center
01:33PM 42.0756 -88.3958 257° West 245 282 4,000  Level Chicago Center
01:34PM 42.0175 -88.4000 183° South 216 249 4,000  Level Chicago Center
01:35PM 41.9994 -88.3328 110° East 185 213 4,000  Level Chicago Center
01:36PM 42.0014 -88.2653 88° East 181 208 4,000  Level Chicago Center
01:37PM 42.0014 -88.1933 90° East 180 207 4,000 -240 Level Chicago Center
01:38PM 42.0022 -88.1250 89° East 181 208 3,600 -720 Descending Chicago Center
01:39PM 42.0022 -88.0533 90° East 179 206 2,600 -900 Descending Chicago Center
01:40PM 42.0019 -87.9958 90° East 156 180 1,800 -780 Descending Chicago Center
01:41PM 42.0017 -87.9475 90° East 127 146 1,100 -480 Descending Chicago Center
01:42PM 42.0017 -87.9003 90° East 127 146 900 -240 Descending Chicago Center